ADDS METAR Data INFO
IDs: Format: Raw Decoded Include TAF

Data at: 2002 UTC 19 Oct 2017

KL18 191955Z AUTO 20008KT 10SM CLR 22/14 A2991 RMK AO2
KL18 191935Z AUTO 24008KT 200V270 10SM CLR 23/14 A2992 RMK AO2
KL18 191915Z AUTO 18005KT 10SM CLR 22/15 A2992 RMK AO2
KL18 191855Z AUTO 19008KT 160V220 10SM CLR 21/14 A2993 RMK AO2
KL18 191835Z AUTO 24006KT 10SM CLR 22/14 A2994 RMK AO2
KL18 191815Z AUTO 18006KT 10SM SCT021 21/14 A2994 RMK AO2
KL18 191755Z AUTO 21005KT 10SM BKN019 21/14 A2994 RMK AO2
KL18 191735Z AUTO 22005KT 10SM BKN017 20/15 A2995 RMK AO2
KL18 191715Z AUTO 21004KT 10SM SCT017 20/15 A2995 RMK AO2
KL18 191655Z AUTO 14003KT 10SM CLR 19/15 A2995 RMK AO2
KL18 191635Z AUTO 00000KT 7SM CLR 19/14 A2994 RMK AO2
KL18 191615Z AUTO 00000KT 7SM SCT011 18/15 A2995 RMK AO2
KL18 191555Z AUTO 00000KT 7SM OVC011 17/15 A2994 RMK AO2
KL18 191535Z AUTO 00000KT 7SM OVC011 17/15 A2993 RMK AO2
KL18 191515Z AUTO 00000KT 5SM BR OVC011 17/15 A2992 RMK AO2
KL18 191455Z AUTO 00000KT 5SM BR OVC011 17/15 A2992 RMK AO2
KL18 191435Z AUTO 00000KT 5SM BR OVC011 16/15 A2991 RMK AO2
KL18 191415Z AUTO 00000KT 5SM BR OVC013 16/15 A2992 RMK AO2
KL18 191355Z AUTO 00000KT 7SM OVC013 16/15 A2992 RMK AO2
KL18 191335Z AUTO 00000KT 7SM OVC013 16/15 A2992 RMK AO2
KL18 191315Z AUTO 00000KT 7SM OVC011 16/15 A2993 RMK AO2
KL18 191255Z AUTO 00000KT 5SM BR OVC013 17/16 A2993 RMK AO2
KL18 191235Z AUTO 00000KT 7SM OVC013 17/16 A2992 RMK AO2
KL18 191215Z AUTO 00000KT 5SM BR OVC013 17/16 A2992 RMK AO2
KL18 191155Z AUTO 00000KT 5SM BR OVC011 17/16 A2992 RMK AO2
KL18 191135Z AUTO 00000KT 5SM BR SCT003 OVC009 16/16 A2991 RMK AO2
KL18 191115Z AUTO 00000KT 2 1/2SM BR BKN003 OVC007 17/16 A2991 RMK AO2
KL18 191055Z AUTO 00000KT 3SM BR SCT002 OVC007 17/17 A2991 RMK AO2
KL18 191035Z AUTO 00000KT 3SM BR OVC005 17/17 A2991 RMK AO2
KL18 191015Z AUTO 00000KT 1 3/4SM BR OVC003 17/17 A2991 RMK AO2
KL18 190955Z AUTO 00000KT 1 1/2SM BR OVC003 17/17 A2991 RMK AO2
KL18 190935Z AUTO 00000KT 1/2SM FG OVC003 17/16 A2992 RMK AO2
KL18 190915Z AUTO 00000KT 1/4SM FG OVC003 17/16 A2992 RMK AO2
KL18 190855Z AUTO 00000KT 1/4SM FG OVC003 17/16 A2993 RMK AO2
KL18 190835Z AUTO 00000KT 1/4SM FG OVC003 17/16 A2993 RMK AO2
KL18 190815Z AUTO 00000KT M1/4SM FG OVC003 17/16 A2993 RMK AO2
KL18 190755Z AUTO 00000KT M1/4SM FG OVC003 17/17 A2993 RMK AO2
KL18 190735Z AUTO 00000KT 3SM BR BKN003 16/16 A2992 RMK AO2
KL18 190715Z AUTO 00000KT 5SM BR CLR 16/16 A2992 RMK AO2
KL18 190655Z AUTO 00000KT 5SM BR SCT015 17/16 A2993 RMK AO2
KL18 190635Z AUTO 00000KT 3/4SM BR OVC013 17/16 A2993 RMK AO2
KL18 190615Z AUTO 00000KT 1/2SM FG OVC011 17/17 A2994 RMK AO2
KL18 190555Z AUTO 00000KT 1/2SM FG BKN003 OVC011 17/17 A2994 RMK AO2
KL18 190535Z AUTO 00000KT 1SM BR OVC003 17/17 A2994 RMK AO2
KL18 190515Z AUTO 00000KT 1 3/4SM BR OVC003 18/17 A2995 RMK AO2
KL18 190455Z AUTO 00000KT 5SM BR BKN003 BKN013 18/17 A2995 RMK AO2
KL18 190435Z AUTO 26003KT 5SM BR CLR 17/17 A2995 RMK AO2
KL18 190415Z AUTO 31003KT 5SM BR CLR 18/17 A2993 RMK AO2
KL18 190355Z AUTO 00000KT 5SM BR SCT013 18/17 A2994 RMK AO2
KL18 190335Z AUTO 00000KT 5SM BR CLR 18/17 A2994 RMK AO2
KL18 190315Z AUTO 00000KT 7SM CLR 18/17 A2994 RMK AO2
KL18 190255Z AUTO 24003KT 7SM CLR 18/17 A2994 RMK AO2
KL18 190235Z AUTO 24003KT 7SM CLR 18/17 A2993 RMK AO2
KL18 190215Z AUTO 00000KT 10SM CLR 19/17 A2993 RMK AO2
KL18 190155Z AUTO 23003KT 10SM CLR 19/17 A2992 RMK AO2
KL18 190135Z AUTO 25003KT 10SM CLR 20/17 A2992 RMK AO2
KL18 190115Z AUTO 23006KT 10SM CLR 21/16 A2992 RMK AO2
KL18 190055Z AUTO 22005KT 10SM CLR 22/15 A2992 RMK AO2
KL18 190035Z AUTO 19007KT 10SM CLR 23/15 A2991 RMK AO2
KL18 190015Z AUTO 22006KT 10SM CLR 24/14 A2991 RMK AO2
KL18 182355Z AUTO 21004KT 10SM CLR 24/14 A2991 RMK AO2
KL18 182335Z AUTO 21004KT 10SM CLR 25/13 A2991 RMK AO2
KL18 182315Z AUTO 21005KT 10SM CLR 25/13 A2992 RMK AO2
KL18 182255Z AUTO 23006KT 10SM CLR 25/13 A2992 RMK AO2
KL18 182235Z AUTO 22008KT 10SM CLR 25/14 A2992 RMK AO2
KL18 182215Z AUTO 21007KT 10SM CLR 26/13 A2992 RMK AO2
KL18 182155Z AUTO 20008KT 10SM CLR 26/13 A2993 RMK AO2
KL18 182135Z AUTO 23010KT 10SM CLR 26/13 A2993 RMK AO2
KL18 182115Z AUTO 21009G16KT 10SM CLR 27/12 A2993 RMK AO2
KL18 182055Z AUTO 22012G15KT 10SM CLR 28/11 A2994 RMK AO2
KL18 182035Z AUTO 23011KT 10SM CLR 29/11 A2994 RMK AO2
KL18 182015Z AUTO 22008KT 10SM CLR 28/12 A2995 RMK AO2
KL18 181955Z AUTO 23009KT 10SM CLR 28/12 A2996 RMK AO2
KL18 181935Z AUTO 22006KT 10SM CLR 28/12 A2996 RMK AO2
KL18 181915Z AUTO 21007KT 10SM CLR 27/12 A2997 RMK AO2
KL18 181855Z AUTO 22006KT 10SM CLR 27/11 A2998 RMK AO2
KL18 181835Z AUTO 21008G14KT 10SM CLR 27/09 A2998 RMK AO2
KL18 181815Z AUTO 20010KT 10SM CLR 27/10 A2998 RMK AO2
KL18 181755Z AUTO 23010KT 10SM CLR 26/10 A2998 RMK AO2
KL18 181735Z AUTO 22007KT 10SM CLR 26/08 A2998 RMK AO2
KL18 181715Z AUTO 23007KT 10SM CLR 25/08 A2998 RMK AO2
KL18 181655Z AUTO 24007KT 10SM CLR 25/06 A2998 RMK AO2
KL18 181635Z AUTO 22004KT 10SM CLR 26/04 A2998 RMK AO2
KL18 181615Z AUTO 24003KT 10SM CLR 26/04 A2998 RMK AO2
KL18 181555Z AUTO 00000KT 10SM CLR 24/07 A2997 RMK AO2
KL18 181535Z AUTO 02003KT 10SM CLR 22/07 A2997 RMK AO2
KL18 181515Z AUTO 02003KT 10SM CLR 21/06 A2996 RMK AO2
KL18 181455Z AUTO 00000KT 10SM CLR 20/06 A2996 RMK AO2
KL18 181435Z AUTO 32005KT 10SM CLR 19/05 A2996 RMK AO2
KL18 181415Z AUTO 35005KT 10SM CLR 18/05 A2996 RMK AO2
KL18 181355Z AUTO 01006KT 10SM CLR 18/05 A2996 RMK AO2
KL18 181335Z AUTO 01004KT 10SM CLR 18/04 A2996 RMK AO2
KL18 181315Z AUTO 32005KT 10SM CLR 19/04 A2996 RMK AO2
KL18 181255Z AUTO 36003KT 10SM CLR 19/05 A2995 RMK AO2
KL18 181235Z AUTO 01003KT 10SM CLR 19/05 A2995 RMK AO2
KL18 181215Z AUTO 36003KT 10SM CLR 19/06 A2995 RMK AO2
KL18 181155Z AUTO 00000KT 10SM CLR 19/06 A2995 RMK AO2
KL18 181135Z AUTO 00000KT 10SM CLR 19/06 A2995 RMK AO2
KL18 181115Z AUTO 00000KT 7SM CLR 18/05 A2995 RMK AO2
KL18 181055Z AUTO 00000KT 10SM CLR 18/05 A2995 RMK AO2
KL18 181035Z AUTO 00000KT 10SM CLR 18/05 A2995 RMK AO2
KL18 181015Z AUTO 00000KT 10SM CLR 20/05 A2995 RMK AO2
KL18 180955Z AUTO 00000KT 10SM CLR 19/04 A2996 RMK AO2
KL18 180935Z AUTO 28005KT 10SM CLR 20/03 A2996 RMK AO2
KL18 180915Z AUTO 29006KT 10SM CLR 20/04 A2995 RMK AO2
KL18 180855Z AUTO 02004KT 10SM CLR 21/04 A2995 RMK AO2
KL18 180835Z AUTO 00000KT 10SM CLR 21/04 A2995 RMK AO2
KL18 180815Z AUTO 36003KT 10SM CLR 20/04 A2995 RMK AO2